createdAt,value
2018-01-23T00:00:14.317Z,8.73
2018-01-23T00:02:41.872Z,7.03
2018-01-23T00:05:09.454Z,6.33
2018-01-23T00:07:37.132Z,6.83
2018-01-23T00:10:04.673Z,7.10
2018-01-23T00:12:32.548Z,7.10
2018-01-23T00:15:00.098Z,8.40
2018-01-23T00:17:27.649Z,7.27
2018-01-23T00:21:39.095Z,6.73
2018-01-23T00:24:06.677Z,8.83
2018-01-23T00:26:34.251Z,6.93
2018-01-23T00:29:01.801Z,7.13
2018-01-23T00:31:29.330Z,7.03
2018-01-23T00:33:56.899Z,6.20
2018-01-23T00:36:24.411Z,8.10
2018-01-23T00:38:52.075Z,7.00
2018-01-23T00:41:19.598Z,8.23
2018-01-23T00:43:47.468Z,6.50
2018-01-23T00:46:15.012Z,7.93
2018-01-23T00:48:42.534Z,6.90
2018-01-23T00:51:10.090Z,7.00
2018-01-23T00:53:37.632Z,7.50
2018-01-23T00:56:05.192Z,8.13
2018-01-23T00:58:32.754Z,7.57
2018-01-23T01:01:00.275Z,7.67
2018-01-23T01:03:27.811Z,7.00
2018-01-23T01:05:55.388Z,7.33
2018-01-23T01:08:22.972Z,10.53
2018-01-23T01:10:50.625Z,7.60
2018-01-23T01:13:18.151Z,8.23
2018-01-23T01:15:45.729Z,6.97
2018-01-23T01:18:13.267Z,7.17
2018-01-23T01:20:40.816Z,8.40
2018-01-23T01:23:08.368Z,9.90
2018-01-23T01:25:35.936Z,7.33
2018-01-23T01:28:03.504Z,7.60
2018-01-23T01:30:31.064Z,6.80
2018-01-23T01:32:58.649Z,7.70
2018-01-23T01:35:26.206Z,8.07
2018-01-23T01:37:53.825Z,8.03
2018-01-23T01:40:21.431Z,6.87
2018-01-23T01:42:49.000Z,7.30
2018-01-23T01:45:16.525Z,8.53
2018-01-23T01:47:44.117Z,6.20
2018-01-23T01:50:11.673Z,7.20
2018-01-23T01:52:39.225Z,7.70
2018-01-23T01:55:06.772Z,7.10
2018-01-23T01:57:34.425Z,7.80
2018-01-23T02:00:01.979Z,7.67
2018-01-23T02:02:29.564Z,6.30
2018-01-23T02:04:57.116Z,8.13
2018-01-23T02:07:24.698Z,7.50
2018-01-23T02:09:52.253Z,7.17
2018-01-23T02:12:19.933Z,8.40
2018-01-23T02:14:47.456Z,7.73
2018-01-23T02:17:15.001Z,7.40
2018-01-23T02:19:42.577Z,8.00
2018-01-23T02:22:10.114Z,7.40
2018-01-23T02:24:37.697Z,7.30
2018-01-23T02:27:05.266Z,8.90
2018-01-23T02:29:32.812Z,7.30
2018-01-23T02:32:00.338Z,8.63
2018-01-23T02:34:28.013Z,8.67
2018-01-23T02:36:55.561Z,8.17
2018-01-23T02:39:23.165Z,8.50
2018-01-23T02:41:50.764Z,8.50
2018-01-23T02:44:18.314Z,9.23
2018-01-23T02:46:45.919Z,8.10
2018-01-23T02:49:13.442Z,8.43
2018-01-23T02:51:40.990Z,7.70
2018-01-23T02:54:08.564Z,8.67
2018-01-23T02:56:36.080Z,7.67
2018-01-23T02:59:03.629Z,9.20
2018-01-23T03:01:31.526Z,8.83
2018-01-23T03:03:59.081Z,9.50
2018-01-23T03:06:26.630Z,9.37
2018-01-23T03:08:54.158Z,7.67
2018-01-23T03:11:21.699Z,9.50
2018-01-23T03:13:49.212Z,9.47
2018-01-23T03:16:16.755Z,9.60
2018-01-23T03:18:44.290Z,10.53
2018-01-23T03:21:11.833Z,10.00
2018-01-23T03:23:39.398Z,9.57
2018-01-23T03:26:06.968Z,9.47
2018-01-23T03:28:34.626Z,9.20
2018-01-23T03:31:02.378Z,11.07
2018-01-23T03:33:29.954Z,10.10
2018-01-23T03:35:57.660Z,9.60
2018-01-23T03:38:25.255Z,10.00
2018-01-23T03:40:52.822Z,10.90
2018-01-23T03:43:20.694Z,11.50
2018-01-23T03:45:48.413Z,9.00
2018-01-23T03:48:15.978Z,9.90
2018-01-23T03:50:43.527Z,11.10
2018-01-23T03:53:11.276Z,11.50
2018-01-23T03:55:38.856Z,10.97
2018-01-23T03:58:06.593Z,12.27
2018-01-23T04:00:34.933Z,11.80
2018-01-23T04:03:02.637Z,11.17
2018-01-23T04:05:30.192Z,11.80
2018-01-23T04:07:57.708Z,10.73
2018-01-23T04:10:25.318Z,9.33
2018-01-23T04:12:52.876Z,10.60
2018-01-23T04:15:20.560Z,11.20
2018-01-23T04:17:48.145Z,9.73
2018-01-23T04:20:15.710Z,11.33
2018-01-23T04:22:43.272Z,9.37
2018-01-23T04:25:10.783Z,10.30
2018-01-23T04:27:38.341Z,11.13
2018-01-23T04:30:05.966Z,9.70
2018-01-23T04:32:33.521Z,10.30
2018-01-23T04:35:01.073Z,11.20
2018-01-23T04:37:28.698Z,10.03
2018-01-23T04:39:56.270Z,10.80
2018-01-23T04:42:23.851Z,9.80
2018-01-23T04:44:51.407Z,10.17
2018-01-23T04:47:18.990Z,8.77
2018-01-23T04:49:46.573Z,10.00
2018-01-23T04:52:14.089Z,9.10
2018-01-23T04:54:41.668Z,10.00
2018-01-23T04:57:09.221Z,9.93
2018-01-23T04:59:36.773Z,10.13
2018-01-23T05:02:04.501Z,9.00
2018-01-23T05:04:32.346Z,10.03
2018-01-23T05:06:59.900Z,9.00
2018-01-23T05:09:27.458Z,7.97
2018-01-23T05:11:55.456Z,8.50
2018-01-23T05:14:23.008Z,8.47
2018-01-23T05:16:50.536Z,8.67
2018-01-23T05:19:18.111Z,8.17
2018-01-23T05:21:45.653Z,9.30
2018-01-23T05:24:13.200Z,9.27
2018-01-23T05:26:40.790Z,8.90
2018-01-23T05:29:08.347Z,8.37
2018-01-23T05:31:35.933Z,7.37
2018-01-23T05:34:03.447Z,8.77
2018-01-23T05:36:31.053Z,8.40
2018-01-23T05:38:58.636Z,8.17
2018-01-23T05:41:26.464Z,7.70
2018-01-23T05:43:53.976Z,7.10
2018-01-23T05:46:21.527Z,7.60
2018-01-23T05:48:49.072Z,6.50
2018-01-23T05:51:16.575Z,7.07
2018-01-23T05:53:44.173Z,7.13
2018-01-23T05:56:11.881Z,7.03
2018-01-23T05:58:39.461Z,7.40
2018-01-23T06:01:07.090Z,7.23
2018-01-23T06:03:34.603Z,7.77
2018-01-23T06:06:02.155Z,8.47
2018-01-23T06:08:29.698Z,8.63
2018-01-23T06:10:57.269Z,8.40
2018-01-23T06:13:24.784Z,7.97
2018-01-23T06:15:52.706Z,7.50
2018-01-23T06:18:20.268Z,8.00
2018-01-23T06:20:47.845Z,7.30
2018-01-23T06:23:15.416Z,7.83
2018-01-23T06:25:42.956Z,8.70
2018-01-23T06:28:10.930Z,8.03
2018-01-23T06:30:38.608Z,8.20
2018-01-23T06:33:06.145Z,9.73
2018-01-23T06:35:34.061Z,7.43
2018-01-23T06:38:01.626Z,9.57
2018-01-23T06:40:29.308Z,7.20
2018-01-23T06:42:57.054Z,9.80
2018-01-23T06:45:24.768Z,8.90
2018-01-23T06:47:52.747Z,8.27
2018-01-23T06:50:20.421Z,7.43
2018-01-23T06:52:47.935Z,8.83
2018-01-23T06:55:15.458Z,9.47
2018-01-23T06:57:43.031Z,8.80
2018-01-23T07:00:10.821Z,8.67
2018-01-23T07:02:38.337Z,9.20
2018-01-23T07:05:05.909Z,9.87
2018-01-23T07:07:33.453Z,9.20
2018-01-23T07:10:00.987Z,8.67
2018-01-23T07:12:28.532Z,9.47
2018-01-23T07:14:56.125Z,10.73
2018-01-23T07:17:23.653Z,10.50
2018-01-23T07:19:51.405Z,10.23
2018-01-23T07:22:18.961Z,10.90
2018-01-23T07:24:46.517Z,10.37
2018-01-23T07:27:14.280Z,10.47
2018-01-23T07:29:41.907Z,10.07
2018-01-23T07:32:09.446Z,13.13
2018-01-23T07:34:37.065Z,11.67
2018-01-23T07:37:04.794Z,12.83
2018-01-23T07:39:32.348Z,13.30
2018-01-23T07:41:59.890Z,15.33
2018-01-23T07:44:27.747Z,14.90
2018-01-23T07:46:55.340Z,14.20
2018-01-23T07:49:22.888Z,15.03
2018-01-23T07:51:50.451Z,15.07
2018-01-23T07:54:18.026Z,16.80
2018-01-23T07:56:45.591Z,16.23
2018-01-23T07:59:13.166Z,16.60
2018-01-23T08:01:40.860Z,17.23
2018-01-23T08:04:08.459Z,15.83
2018-01-23T08:06:36.004Z,16.50
2018-01-23T08:09:03.644Z,14.80
2018-01-23T08:11:31.614Z,15.63
2018-01-23T08:13:59.419Z,15.40
2018-01-23T08:16:27.117Z,14.80
2018-01-23T08:18:54.828Z,17.63
2018-01-23T08:21:22.390Z,15.53
2018-01-23T08:23:49.981Z,15.03
2018-01-23T08:26:17.575Z,15.57
2018-01-23T08:28:45.145Z,14.20
2018-01-23T08:31:12.806Z,15.57
2018-01-23T08:33:40.357Z,13.63
2018-01-23T08:36:07.881Z,12.90
2018-01-23T08:38:35.500Z,13.17
2018-01-23T08:41:03.020Z,14.47
2018-01-23T08:43:30.710Z,12.47
2018-01-23T08:45:58.322Z,12.80
2018-01-23T08:48:25.839Z,13.60
2018-01-23T08:50:53.445Z,11.67
2018-01-23T08:53:20.988Z,13.10
2018-01-23T08:55:48.534Z,14.03
2018-01-23T08:58:16.153Z,13.43
2018-01-23T09:00:43.709Z,12.43
2018-01-23T09:03:11.319Z,13.83
2018-01-23T09:05:38.926Z,12.97
2018-01-23T09:08:06.453Z,12.63
2018-01-23T09:10:34.006Z,13.17
2018-01-23T09:13:01.547Z,14.17
2018-01-23T09:15:29.094Z,14.10
2018-01-23T09:17:56.645Z,14.87
2018-01-23T09:20:24.221Z,15.73
2018-01-23T09:22:51.738Z,12.47
2018-01-23T09:25:19.318Z,16.10
2018-01-23T09:27:46.934Z,16.00
2018-01-23T09:30:14.528Z,16.70
2018-01-23T09:32:42.074Z,15.33
2018-01-23T09:35:09.624Z,15.07
2018-01-23T09:37:37.643Z,16.50
2018-01-23T09:40:05.193Z,15.77
2018-01-23T09:42:32.752Z,14.70
2018-01-23T09:45:00.294Z,16.23
2018-01-23T09:47:28.111Z,16.50
2018-01-23T09:49:55.663Z,17.13
2018-01-23T09:52:23.216Z,16.57
2018-01-23T09:54:50.791Z,16.20
2018-01-23T09:57:18.358Z,15.50
2018-01-23T09:59:45.927Z,18.63
2018-01-23T10:02:13.491Z,15.27
2018-01-23T10:04:41.116Z,16.07
2018-01-23T10:07:08.677Z,16.43
2018-01-23T10:09:36.236Z,16.87
2018-01-23T10:12:03.819Z,16.13
2018-01-23T10:14:31.553Z,17.07
2018-01-23T10:16:59.105Z,18.40
2018-01-23T10:19:26.668Z,16.10
2018-01-23T10:21:54.614Z,15.33
2018-01-23T10:24:22.151Z,15.83
2018-01-23T10:26:49.705Z,15.33
2018-01-23T10:29:17.700Z,15.27
2018-01-23T10:31:45.210Z,15.70
2018-01-23T10:34:12.719Z,16.63
2018-01-23T10:36:40.277Z,15.10
2018-01-23T10:39:07.871Z,14.63
2018-01-23T10:41:35.458Z,15.30
2018-01-23T10:44:03.026Z,13.60
2018-01-23T10:46:30.585Z,13.00
2018-01-23T10:48:58.285Z,14.13
2018-01-23T10:51:25.821Z,13.50
2018-01-23T10:53:53.362Z,12.20
2018-01-23T10:56:20.915Z,12.07
2018-01-23T10:58:48.462Z,11.80
2018-01-23T11:01:16.006Z,12.10
2018-01-23T11:03:43.857Z,11.87
2018-01-23T11:06:11.391Z,13.57
2018-01-23T11:08:38.953Z,12.40
2018-01-23T11:11:06.525Z,10.70
2018-01-23T11:13:34.088Z,10.37
2018-01-23T11:16:01.696Z,11.00
2018-01-23T11:18:29.253Z,11.97
2018-01-23T11:20:56.784Z,11.90
2018-01-23T11:23:24.356Z,10.60
2018-01-23T11:25:51.914Z,10.40
2018-01-23T11:28:19.477Z,10.23
2018-01-23T11:30:47.235Z,10.30
2018-01-23T11:33:14.759Z,11.20
2018-01-23T11:35:42.353Z,9.47
2018-01-23T11:38:09.914Z,9.37
2018-01-23T11:40:37.435Z,9.40
2018-01-23T11:43:04.975Z,8.30
2018-01-23T11:45:32.527Z,10.87
2018-01-23T11:48:00.081Z,8.63
2018-01-23T11:50:27.600Z,8.50
2018-01-23T11:52:55.130Z,9.20
2018-01-23T11:55:22.690Z,8.27
2018-01-23T11:57:50.227Z,7.80
2018-01-23T12:00:17.761Z,9.07
2018-01-23T12:02:45.585Z,8.97
2018-01-23T12:05:13.133Z,8.07
2018-01-23T12:07:40.665Z,7.90
2018-01-23T12:10:08.399Z,8.37
2018-01-23T12:12:35.946Z,8.20
2018-01-23T12:15:03.505Z,8.33
2018-01-23T12:17:31.077Z,8.00
2018-01-23T12:19:58.630Z,8.37
2018-01-23T12:22:26.182Z,7.00
2018-01-23T12:24:53.733Z,6.70
2018-01-23T12:27:21.306Z,8.03
2018-01-23T12:29:48.910Z,7.27
2018-01-23T12:32:16.660Z,7.03
2018-01-23T12:34:44.226Z,7.23
2018-01-23T12:37:11.796Z,6.90
2018-01-23T12:39:39.408Z,7.60
2018-01-23T12:42:07.112Z,6.70
2018-01-23T12:44:34.678Z,6.43
2018-01-23T12:47:02.518Z,5.93
2018-01-23T12:49:30.074Z,7.60
2018-01-23T12:51:57.634Z,6.97
2018-01-23T12:54:25.251Z,6.80
2018-01-23T12:56:52.768Z,6.17
2018-01-23T12:59:20.275Z,6.87
2018-01-23T13:01:47.826Z,6.73
2018-01-23T13:04:15.415Z,6.87
2018-01-23T13:06:42.971Z,6.67
2018-01-23T13:09:10.553Z,5.80
2018-01-23T13:11:38.079Z,5.70
2018-01-23T13:14:06.721Z,6.90
2018-01-23T13:16:34.285Z,7.43
2018-01-23T13:19:01.836Z,6.03
2018-01-23T13:21:29.379Z,5.70
2018-01-23T13:23:57.030Z,6.60
2018-01-23T13:26:24.614Z,5.70
2018-01-23T13:28:52.276Z,7.10
2018-01-23T13:31:19.889Z,5.63
2018-01-23T13:33:47.446Z,6.10
2018-01-23T13:36:14.964Z,5.90
2018-01-23T13:38:42.550Z,5.83
2018-01-23T13:41:10.147Z,6.23
2018-01-23T13:43:37.708Z,5.47
2018-01-23T13:46:05.594Z,6.53
2018-01-23T13:48:33.103Z,6.30
2018-01-23T13:51:00.623Z,6.10
2018-01-23T13:53:28.172Z,5.53
2018-01-23T13:55:55.780Z,6.10
2018-01-23T13:58:23.760Z,6.37
2018-01-23T14:00:51.278Z,6.23
2018-01-23T14:03:18.830Z,4.67
2018-01-23T14:05:46.401Z,4.00
2018-01-23T14:08:13.996Z,3.77
2018-01-23T14:10:41.635Z,4.70
2018-01-23T14:13:09.178Z,4.70
2018-01-23T14:15:36.748Z,4.90
2018-01-23T14:18:04.286Z,4.30
2018-01-23T14:20:31.859Z,4.50
2018-01-23T14:22:59.370Z,5.57
2018-01-23T14:25:26.917Z,5.63
2018-01-23T14:27:54.506Z,5.13
2018-01-23T14:30:22.032Z,5.03
2018-01-23T14:32:49.597Z,6.13
2018-01-23T14:35:17.144Z,4.90
2018-01-23T14:37:44.687Z,4.70
2018-01-23T14:40:12.222Z,4.67
2018-01-23T14:42:39.833Z,5.50
2018-01-23T14:45:07.352Z,4.90
2018-01-23T14:47:34.145Z,4.23
2018-01-23T14:50:01.680Z,5.37
2018-01-23T14:52:29.456Z,5.47
2018-01-23T14:54:57.025Z,4.87
2018-01-23T14:57:25.528Z,4.63
2018-01-23T14:59:53.334Z,3.97
2018-01-23T15:02:20.949Z,5.33
2018-01-23T15:04:48.518Z,5.30
2018-01-23T15:07:16.055Z,4.60
2018-01-23T15:09:43.586Z,4.90
2018-01-23T15:12:11.120Z,4.13
2018-01-23T15:14:38.842Z,4.40
2018-01-23T15:17:06.437Z,5.53
2018-01-23T15:19:33.947Z,5.50
2018-01-23T15:22:01.504Z,4.13
2018-01-23T15:24:29.078Z,5.20
2018-01-23T15:26:56.611Z,4.80
2018-01-23T15:29:24.146Z,4.20
2018-01-23T15:31:51.667Z,5.67
2018-01-23T15:34:19.274Z,4.90
2018-01-23T15:36:46.829Z,6.40
2018-01-23T15:39:14.378Z,4.53
2018-01-23T15:41:41.924Z,4.10
2018-01-23T15:44:09.468Z,5.53
2018-01-23T15:46:37.045Z,5.40
2018-01-23T15:49:04.597Z,5.50
2018-01-23T15:51:32.153Z,5.87
2018-01-23T15:53:59.684Z,5.33
2018-01-23T15:56:27.267Z,5.40
2018-01-23T15:58:54.962Z,6.20
2018-01-23T16:01:22.514Z,5.43
2018-01-23T16:03:50.789Z,5.50
2018-01-23T16:06:18.349Z,5.33
2018-01-23T16:08:45.928Z,5.63
2018-01-23T16:11:13.464Z,5.50
2018-01-23T16:13:40.990Z,6.10
2018-01-23T16:16:08.571Z,6.07
2018-01-23T16:18:36.100Z,12.40
2018-01-23T16:21:03.636Z,6.83
2018-01-23T16:23:31.171Z,6.77
2018-01-23T16:25:58.747Z,11.87
2018-01-23T16:28:26.303Z,11.43
2018-01-23T16:30:53.901Z,12.77
2018-01-23T16:33:21.495Z,14.60
2018-01-23T16:35:49.057Z,11.57
2018-01-23T16:38:16.641Z,10.17
2018-01-23T16:40:44.410Z,20.80
2018-01-23T16:43:11.981Z,12.33
2018-01-23T16:45:39.542Z,8.30
2018-01-23T16:48:07.089Z,7.80
2018-01-23T16:50:34.629Z,6.03
2018-01-23T16:53:02.533Z,5.80
2018-01-23T16:55:30.084Z,6.20
2018-01-23T16:57:57.634Z,6.33
2018-01-23T17:00:25.220Z,6.50
2018-01-23T17:02:52.726Z,6.87
2018-01-23T17:05:20.310Z,6.30
2018-01-23T17:07:47.891Z,6.40
2018-01-23T17:10:15.465Z,5.53
2018-01-23T17:12:43.022Z,6.60
2018-01-23T17:15:10.609Z,5.97
2018-01-23T17:17:38.130Z,5.97
2018-01-23T17:20:05.743Z,5.93
2018-01-23T17:22:33.293Z,3.80
2018-01-23T17:25:00.831Z,6.10
2018-01-23T17:27:28.380Z,6.77
2018-01-23T17:29:55.961Z,5.37
2018-01-23T17:32:23.572Z,5.50
2018-01-23T17:34:51.147Z,6.63
2018-01-23T17:37:18.678Z,4.50
2018-01-23T17:39:46.229Z,6.40
2018-01-23T17:42:13.796Z,6.43
2018-01-23T17:44:41.319Z,6.73
2018-01-23T17:47:08.870Z,6.17
2018-01-23T17:49:36.422Z,5.43
2018-01-23T17:52:03.977Z,5.73
2018-01-23T17:54:31.561Z,5.20
2018-01-23T17:56:59.322Z,6.17
2018-01-23T17:59:26.950Z,4.90
2018-01-23T18:01:54.733Z,5.20
2018-01-23T18:04:22.311Z,6.10
2018-01-23T18:06:49.867Z,4.30
2018-01-23T18:09:17.458Z,4.70
2018-01-23T18:11:45.126Z,5.43
2018-01-23T18:14:12.702Z,5.40
2018-01-23T18:16:40.215Z,4.83
2018-01-23T18:19:07.761Z,5.57
2018-01-23T18:21:35.349Z,3.90
2018-01-23T18:24:02.915Z,5.43
2018-01-23T18:26:30.462Z,5.00
2018-01-23T18:28:57.974Z,6.03
2018-01-23T18:31:25.537Z,4.90
2018-01-23T18:33:53.081Z,5.00
2018-01-23T18:36:21.017Z,5.73
2018-01-23T18:38:48.586Z,6.00
2018-01-23T18:41:16.123Z,6.50
2018-01-23T18:43:43.760Z,4.73
2018-01-23T18:46:11.558Z,7.10
2018-01-23T18:48:39.073Z,7.83
2018-01-23T18:51:06.615Z,10.67
2018-01-23T18:53:34.140Z,8.73
2018-01-23T18:56:01.723Z,9.03
2018-01-23T18:58:29.281Z,11.10
2018-01-23T19:00:56.832Z,9.97
2018-01-23T19:03:24.352Z,9.33
2018-01-23T19:05:51.898Z,9.60
2018-01-23T19:08:19.476Z,9.70
2018-01-23T19:10:46.995Z,9.80
2018-01-23T19:13:15.637Z,10.20
2018-01-23T19:15:43.211Z,10.43
2018-01-23T19:18:10.761Z,10.07
2018-01-23T19:20:38.369Z,8.83
2018-01-23T19:23:05.973Z,9.53
2018-01-23T19:25:33.894Z,10.47
2018-01-23T19:28:01.814Z,9.87
2018-01-23T19:30:29.402Z,25.60
2018-01-23T19:32:56.994Z,13.93
2018-01-23T19:35:24.626Z,11.80
2018-01-23T19:37:52.266Z,15.27
2018-01-23T19:40:19.891Z,18.17
2018-01-23T19:42:47.459Z,14.17
2018-01-23T19:45:15.034Z,12.70
2018-01-23T19:47:42.979Z,19.50
2018-01-23T19:50:10.535Z,11.20
2018-01-23T19:52:38.081Z,12.63
2018-01-23T19:55:05.673Z,15.23
2018-01-23T19:57:33.663Z,12.07
2018-01-23T20:00:01.303Z,13.63
2018-01-23T20:02:28.837Z,14.10
2018-01-23T20:04:56.687Z,16.30
2018-01-23T20:07:24.246Z,17.43
2018-01-23T20:09:51.771Z,10.63
2018-01-23T20:12:19.366Z,19.10
2018-01-23T20:14:46.990Z,16.90
2018-01-23T20:17:14.539Z,14.07
2018-01-23T20:19:42.104Z,15.60
2018-01-23T20:22:09.701Z,12.57
2018-01-23T20:24:37.275Z,17.17
2018-01-23T20:27:04.892Z,15.67
2018-01-23T20:29:32.595Z,13.23
2018-01-23T20:32:00.149Z,20.97
2018-01-23T20:34:27.667Z,15.73
2018-01-23T20:36:55.279Z,15.87
2018-01-23T20:39:22.834Z,12.90
2018-01-23T20:41:50.384Z,19.70
2018-01-23T20:44:18.981Z,19.47
2018-01-23T20:46:46.873Z,12.77
2018-01-23T20:49:14.430Z,13.80
2018-01-23T20:51:41.965Z,17.67
2018-01-23T20:54:09.588Z,15.23
2018-01-23T20:56:37.114Z,18.13
2018-01-23T20:59:04.636Z,20.30
2018-01-23T21:01:32.213Z,15.57
2018-01-23T21:03:59.767Z,17.20
2018-01-23T21:06:27.297Z,16.33
2018-01-23T21:08:54.895Z,21.90
2018-01-23T21:11:22.461Z,16.57
2018-01-23T21:13:50.209Z,16.17
2018-01-23T21:16:17.736Z,18.03
2018-01-23T21:18:45.334Z,17.30
2018-01-23T21:21:12.901Z,16.77
2018-01-23T21:23:40.444Z,23.20
2018-01-23T21:26:08.055Z,19.57
2018-01-23T21:28:35.616Z,23.27
2018-01-23T21:31:03.169Z,23.80
2018-01-23T21:33:31.069Z,18.57
2018-01-23T21:35:58.590Z,13.47
2018-01-23T21:38:26.153Z,18.47
2018-01-23T21:40:53.695Z,19.27
2018-01-23T21:43:21.220Z,19.30
2018-01-23T21:45:48.797Z,23.07
2018-01-23T21:48:16.347Z,19.67
2018-01-23T21:50:43.938Z,20.50
2018-01-23T21:53:11.497Z,23.10
2018-01-23T21:55:39.053Z,17.47
2018-01-23T21:58:06.765Z,21.80
2018-01-23T22:00:34.349Z,21.23
2018-01-23T22:03:02.119Z,18.80
2018-01-23T22:05:29.654Z,20.50
2018-01-23T22:07:57.203Z,19.77
2018-01-23T22:10:25.016Z,20.80
2018-01-23T22:12:52.535Z,17.40
2018-01-23T22:15:20.061Z,20.30
2018-01-23T22:17:47.675Z,19.63
2018-01-23T22:20:15.340Z,20.73
2018-01-23T22:22:43.215Z,21.50
2018-01-23T22:25:10.744Z,20.27
2018-01-23T22:27:38.262Z,19.77
2018-01-23T22:30:05.849Z,18.63
2018-01-23T22:32:33.430Z,21.50
2018-01-23T22:35:01.181Z,21.07
2018-01-23T22:37:28.706Z,17.23
2018-01-23T22:39:56.290Z,21.20
2018-01-23T22:42:23.849Z,21.20
2018-01-23T22:44:51.470Z,20.10
2018-01-23T22:47:19.028Z,20.83
2018-01-23T22:49:46.720Z,18.87
2018-01-23T22:52:14.309Z,18.87
2018-01-23T22:54:41.819Z,18.50
2018-01-23T22:57:09.355Z,17.23
2018-01-23T22:59:36.867Z,17.13
2018-01-23T23:02:04.697Z,14.87
2018-01-23T23:04:33.202Z,15.70
2018-01-23T23:07:00.855Z,17.17
2018-01-23T23:09:28.436Z,15.97
2018-01-23T23:11:56.025Z,17.10
2018-01-23T23:14:23.614Z,17.90
2018-01-23T23:16:51.148Z,17.87
2018-01-23T23:19:18.726Z,17.93
2018-01-23T23:21:46.248Z,16.67
2018-01-23T23:24:13.776Z,17.50
2018-01-23T23:26:41.449Z,15.30
2018-01-23T23:29:09.004Z,18.20
2018-01-23T23:31:36.693Z,18.43
2018-01-23T23:34:04.242Z,16.60
2018-01-23T23:36:34.924Z,14.67
2018-01-23T23:39:02.513Z,16.97
2018-01-23T23:41:30.031Z,17.70
2018-01-23T23:43:57.623Z,19.93
2018-01-23T23:46:25.181Z,16.77
2018-01-23T23:48:52.754Z,19.47
2018-01-23T23:51:20.269Z,18.63
2018-01-23T23:53:47.837Z,18.73
2018-01-23T23:56:15.604Z,16.80
2018-01-23T23:58:43.161Z,17.00
